Time;durP1;ratioP1;P1;durP2;ratioP2;P2;SDS_P1;SDS_P2;PMS_P1;PMS_P2;Temp;Humidity;BMP_temperature;BMP_pressure;BME280_temperature;BME280_humidity;BME280_pressure;Samples;Min_cycle;Max_cycle;Signal;HPM_P1;HPM_P2
2023/02/27 00:00:14;;;;;;;0.73;0.73;;;1.60;99.70;;;;;;4925930;29;20511;-69
2023/02/27 00:02:46;;;;;;;0.50;0.50;;;1.60;99.90;;;;;;4907597;29;20466;-69
2023/02/27 00:05:12;;;;;;;1.37;0.90;;;1.60;99.90;;;;;;4929947;29;20522;-69
2023/02/27 00:07:38;;;;;;;0.50;0.50;;;1.60;99.90;;;;;;4920050;28;20465;-70
2023/02/27 00:10:05;;;;;;;1.00;1.00;;;1.60;99.90;;;;;;4920147;29;20538;-70
2023/02/27 00:12:36;;;;;;;0.40;0.40;;;1.60;99.90;;;;;;4915094;29;20232;-69
2023/02/27 00:15:07;;;;;;;1.73;0.43;;;1.60;99.80;;;;;;4922969;29;20466;-70
2023/02/27 00:17:33;;;;;;;0.60;0.53;;;1.50;99.70;;;;;;4941906;29;20516;-70
2023/02/27 00:19:59;;;;;;;0.40;0.40;;;1.50;99.90;;;;;;4925219;29;20547;-69
2023/02/27 00:22:25;;;;;;;1.03;0.60;;;1.60;99.90;;;;;;4919177;29;20515;-69
2023/02/27 00:24:51;;;;;;;0.57;0.57;;;1.60;99.90;;;;;;4927908;28;20224;-70
2023/02/27 00:27:17;;;;;;;0.57;0.57;;;1.60;99.90;;;;;;4915756;29;20493;-68
2023/02/27 00:29:43;;;;;;;0.80;0.73;;;1.60;99.90;;;;;;4903002;28;20219;-71
2023/02/27 00:32:09;;;;;;;0.87;0.70;;;1.60;99.90;;;;;;4919370;29;20467;-70
2023/02/27 00:34:34;;;;;;;1.00;0.90;;;1.60;99.80;;;;;;4919930;29;20218;-69
2023/02/27 00:37:00;;;;;;;2.10;0.97;;;1.60;99.80;;;;;;4912616;29;20230;-70
2023/02/27 00:39:25;;;;;;;0.63;0.57;;;1.60;99.90;;;;;;4930584;29;20273;-70
2023/02/27 00:41:51;;;;;;;0.70;0.70;;;1.50;99.80;;;;;;4917205;29;20223;-70
2023/02/27 00:44:17;;;;;;;2.50;1.43;;;1.50;99.90;;;;;;4948063;28;20225;-69
2023/02/27 00:46:44;;;;;;;0.77;0.77;;;1.50;99.90;;;;;;4928521;28;20222;-70
2023/02/27 00:49:10;;;;;;;0.70;0.70;;;1.50;99.90;;;;;;4900598;29;20461;-70
2023/02/27 00:51:36;;;;;;;0.77;0.60;;;1.50;99.90;;;;;;4919619;29;20483;-70
2023/02/27 00:54:02;;;;;;;0.90;0.90;;;1.50;99.90;;;;;;4917646;29;20230;-70
2023/02/27 00:56:28;;;;;;;0.40;0.40;;;1.50;99.90;;;;;;4929672;29;20218;-69
2023/02/27 00:58:54;;;;;;;0.60;0.50;;;1.50;99.90;;;;;;4918191;29;20489;-69
2023/02/27 01:01:21;;;;;;;1.07;0.90;;;1.40;99.90;;;;;;4921802;29;20688;-69
2023/02/27 01:03:47;;;;;;;5.97;0.73;;;1.40;99.90;;;;;;4905410;28;20531;-70
2023/02/27 01:06:13;;;;;;;1.37;0.60;;;1.30;99.90;;;;;;4926260;28;20442;-69
2023/02/27 01:08:38;;;;;;;3.23;0.70;;;1.40;99.90;;;;;;4909354;29;20210;-69
2023/02/27 01:11:04;;;;;;;1.00;0.50;;;1.40;99.90;;;;;;4922919;29;20314;-68
2023/02/27 01:13:30;;;;;;;0.67;0.67;;;1.40;99.90;;;;;;4920181;29;20230;-69
2023/02/27 01:15:57;;;;;;;1.67;1.23;;;1.40;99.90;;;;;;4931107;28;20466;-69
2023/02/27 01:18:23;;;;;;;2.20;1.03;;;1.40;99.90;;;;;;4933877;29;20481;-68
2023/02/27 01:20:55;;;;;;;1.50;0.80;;;1.30;99.90;;;;;;4922915;28;20761;-71
2023/02/27 01:23:21;;;;;;;0.93;0.83;;;1.30;99.90;;;;;;4920390;29;20227;-69
2023/02/27 01:25:48;;;;;;;1.53;0.80;;;1.30;99.90;;;;;;4923071;29;20487;-69
2023/02/27 01:28:14;;;;;;;1.43;1.27;;;1.30;99.90;;;;;;4915805;29;20506;-69
2023/02/27 01:30:43;;;;;;;1.20;0.90;;;1.30;99.90;;;;;;4926575;29;20217;-67
2023/02/27 01:33:09;;;;;;;1.40;0.60;;;1.30;99.90;;;;;;4925470;29;20467;-69
2023/02/27 01:35:35;;;;;;;1.63;0.73;;;1.30;99.90;;;;;;4929147;29;20458;-69
2023/02/27 01:38:01;;;;;;;1.33;1.03;;;1.30;99.90;;;;;;4932347;28;20449;-69
2023/02/27 01:40:26;;;;;;;0.90;0.73;;;1.30;99.90;;;;;;4920691;29;20227;-69
2023/02/27 01:42:52;;;;;;;1.57;0.60;;;1.30;99.90;;;;;;4922456;29;20219;-69
2023/02/27 01:45:24;;;;;;;0.70;0.70;;;1.30;99.90;;;;;;4909246;29;20318;-68
2023/02/27 01:47:57;;;;;;;0.97;0.80;;;1.30;99.90;;;;;;4924095;29;20228;-69
2023/02/27 01:50:24;;;;;;;0.97;0.70;;;1.30;99.90;;;;;;4908516;29;20548;-69
2023/02/27 01:52:57;;;;;;;1.27;0.67;;;1.40;99.90;;;;;;4915370;28;20450;-70
2023/02/27 01:55:25;;;;;;;1.23;0.90;;;1.40;99.90;;;;;;4921887;29;20468;-68
2023/02/27 01:57:52;;;;;;;0.90;0.90;;;1.40;99.90;;;;;;4948318;28;20471;-69
2023/02/27 02:00:19;;;;;;;1.10;0.80;;;1.40;99.90;;;;;;4925511;29;20598;-70
2023/02/27 02:02:53;;;;;;;0.70;0.67;;;1.30;99.90;;;;;;4914558;29;20455;-69
2023/02/27 02:05:20;;;;;;;1.73;0.60;;;1.20;99.90;;;;;;4923698;29;20972;-68
2023/02/27 02:07:46;;;;;;;4.60;0.60;;;1.20;99.90;;;;;;4900783;28;20942;-69
2023/02/27 02:10:15;;;;;;;1.00;0.90;;;1.20;99.90;;;;;;4923362;29;20479;-69
2023/02/27 02:12:41;;;;;;;0.73;0.70;;;1.20;99.90;;;;;;4952650;28;20549;-68
2023/02/27 02:15:08;;;;;;;1.90;0.70;;;1.10;99.90;;;;;;4924566;29;20468;-69
2023/02/27 02:18:28;;;;;;;1.80;0.70;;;1.10;99.90;;;;;;4921745;29;20450;-70
2023/02/27 02:21:11;;;;;;;0.87;0.87;;;1.10;99.90;;;;;;4895536;29;20463;-69
2023/02/27 02:24:10;;;;;;;0.60;0.60;;;1.10;99.90;;;;;;4903863;29;20450;-69
2023/02/27 02:26:48;;;;;;;1.87;0.60;;;1.10;99.90;;;;;;4945690;28;20457;-69
2023/02/27 02:29:38;;;;;;;0.80;0.60;;;1.10;99.90;;;;;;4914617;29;20454;-70
2023/02/27 02:32:35;;;;;;;1.73;0.70;;;1.10;99.90;;;;;;4920348;29;20464;-71
2023/02/27 02:35:22;;;;;;;1.23;0.77;;;1.10;99.90;;;;;;4925255;29;20492;-70
2023/02/27 02:38:10;;;;;;;1.03;0.73;;;1.10;99.90;;;;;;4924262;28;20540;-71
2023/02/27 02:41:02;;;;;;;1.97;0.90;;;1.10;99.90;;;;;;4933059;29;20507;-70
2023/02/27 02:43:34;;;;;;;1.03;0.67;;;1.10;99.90;;;;;;4921029;29;20977;-70
2023/02/27 02:46:02;;;;;;;2.83;0.70;;;1.10;99.90;;;;;;4962163;28;20472;-71
2023/02/27 02:48:51;;;;;;;0.90;0.90;;;1.00;99.90;;;;;;4919980;28;20467;-70
2023/02/27 02:51:40;;;;;;;0.60;0.60;;;1.00;99.90;;;;;;4923231;29;20455;-70
2023/02/27 02:54:15;;;;;;;1.00;0.83;;;0.90;99.90;;;;;;4929060;29;20477;-70
2023/02/27 02:56:45;;;;;;;1.17;0.73;;;0.90;99.90;;;;;;4919378;29;20451;-70
2023/02/27 02:59:33;;;;;;;0.90;0.60;;;0.90;99.90;;;;;;4937068;28;20553;-69
2023/02/27 03:02:04;;;;;;;0.70;0.70;;;0.90;99.90;;;;;;4943349;28;20458;-70
2023/02/27 03:04:36;;;;;;;0.50;0.50;;;0.90;99.90;;;;;;4918180;29;20459;-69
2023/02/27 03:07:07;;;;;;;0.73;0.73;;;0.90;99.90;;;;;;4933858;28;20460;-70
2023/02/27 03:10:08;;;;;;;2.67;0.77;;;0.90;99.90;;;;;;4923301;29;20466;-70
2023/02/27 03:12:38;;;;;;;0.60;0.60;;;0.90;99.90;;;;;;4913793;29;20455;-70
2023/02/27 03:15:14;;;;;;;0.40;0.40;;;0.90;99.90;;;;;;4920332;28;20479;-69
2023/02/27 03:17:49;;;;;;;1.90;0.50;;;0.90;99.90;;;;;;4929434;29;20461;-70
2023/02/27 03:20:34;;;;;;;2.70;0.60;;;0.90;99.90;;;;;;4927915;29;20451;-70
2023/02/27 03:23:05;;;;;;;2.07;0.77;;;0.90;99.90;;;;;;4928824;28;20518;-70
2023/02/27 03:25:33;;;;;;;1.17;0.97;;;0.90;99.90;;;;;;4905386;29;20458;-70
2023/02/27 03:28:03;;;;;;;0.70;0.50;;;0.90;99.90;;;;;;4922419;28;20496;-70
2023/02/27 03:30:34;;;;;;;0.60;0.47;;;0.90;99.90;;;;;;4916143;29;20458;-69
2023/02/27 03:33:06;;;;;;;0.53;0.50;;;0.80;99.90;;;;;;4928514;28;20520;-70
2023/02/27 03:36:13;;;;;;;0.67;0.63;;;0.80;99.90;;;;;;4917898;29;20449;-68
2023/02/27 03:38:41;;;;;;;1.17;0.77;;;0.80;99.90;;;;;;4904546;29;20477;-69
2023/02/27 03:41:30;;;;;;;1.47;0.90;;;0.80;99.90;;;;;;4925045;29;20497;-69
2023/02/27 03:44:35;;;;;;;0.77;0.53;;;0.70;99.90;;;;;;4926588;29;20451;-68
2023/02/27 03:47:01;;;;;;;0.60;0.47;;;0.70;99.90;;;;;;4926650;28;20467;-69
2023/02/27 03:49:27;;;;;;;2.03;0.60;;;0.70;99.90;;;;;;4937560;28;21178;-68
2023/02/27 03:51:53;;;;;;;1.50;0.60;;;0.70;99.90;;;;;;4915243;28;20465;-69
2023/02/27 03:54:28;;;;;;;0.70;0.70;;;0.60;99.90;;;;;;4914717;29;20251;-70
2023/02/27 03:57:03;;;;;;;0.80;0.50;;;0.60;99.90;;;;;;4912282;28;20458;-70
2023/02/27 03:59:30;;;;;;;0.80;0.73;;;0.70;99.90;;;;;;4924499;29;20490;-69
2023/02/27 04:01:58;;;;;;;0.40;0.40;;;0.60;99.90;;;;;;4927738;28;20515;-70
2023/02/27 04:04:26;;;;;;;0.90;0.70;;;0.50;99.90;;;;;;4919077;29;20531;-70
2023/02/27 04:07:31;;;;;;;0.83;0.40;;;0.60;99.90;;;;;;4920340;29;20457;-69
2023/02/27 04:10:35;;;;;;;0.63;0.53;;;0.60;99.90;;;;;;4919564;28;20544;-70
2023/02/27 04:13:28;;;;;;;1.00;0.40;;;0.60;99.90;;;;;;4894334;29;20486;-70
2023/02/27 04:16:14;;;;;;;0.77;0.70;;;0.60;99.90;;;;;;4891399;29;20460;-69
2023/02/27 04:18:55;;;;;;;1.50;0.83;;;0.60;99.90;;;;;;4924741;28;20502;-69
2023/02/27 04:21:20;;;;;;;0.53;0.53;;;0.60;99.90;;;;;;4922843;29;20490;-70
2023/02/27 04:24:17;;;;;;;1.27;0.53;;;0.60;99.90;;;;;;4930122;28;20561;-69
2023/02/27 04:26:53;;;;;;;1.27;0.60;;;0.60;99.90;;;;;;4921499;29;20518;-69
2023/02/27 04:29:29;;;;;;;0.93;0.60;;;0.60;99.90;;;;;;4925023;29;20529;-71
2023/02/27 04:32:03;;;;;;;0.50;0.50;;;0.50;99.90;;;;;;4924510;28;20472;-71
2023/02/27 04:34:40;;;;;;;0.50;0.50;;;0.50;99.90;;;;;;4919052;29;20477;-69
2023/02/27 04:37:15;;;;;;;1.00;0.80;;;0.50;99.90;;;;;;4922407;28;20465;-71
2023/02/27 04:39:50;;;;;;;2.10;1.00;;;0.50;99.90;;;;;;4952476;28;20465;-70
2023/02/27 04:42:19;;;;;;;0.30;0.30;;;0.40;99.90;;;;;;4931217;29;20484;-70
2023/02/27 04:44:48;;;;;;;0.60;0.60;;;0.50;99.90;;;;;;4923952;28;20459;-70
2023/02/27 04:47:16;;;;;;;0.80;0.60;;;0.50;99.90;;;;;;4913889;28;20530;-70
2023/02/27 04:49:44;;;;;;;4.27;0.80;;;0.50;99.90;;;;;;4929382;28;20543;-70
2023/02/27 04:52:23;;;;;;;1.13;0.97;;;0.50;99.90;;;;;;4923689;28;20451;-70
2023/02/27 04:54:55;;;;;;;0.73;0.60;;;0.50;99.90;;;;;;4921020;28;20471;-70
2023/02/27 04:57:30;;;;;;;2.33;0.87;;;0.50;99.90;;;;;;4924113;29;20478;-68
2023/02/27 05:00:00;;;;;;;0.70;0.70;;;0.50;99.90;;;;;;4909476;28;20521;-70
2023/02/27 05:02:36;;;;;;;2.03;0.70;;;0.50;99.90;;;;;;4925342;29;20474;-70
2023/02/27 05:05:07;;;;;;;2.23;1.07;;;0.50;99.90;;;;;;4921600;28;20446;-70
2023/02/27 05:07:42;;;;;;;0.50;0.50;;;0.50;99.90;;;;;;4927172;28;20476;-70
2023/02/27 05:10:25;;;;;;;1.10;0.73;;;0.50;99.90;;;;;;4941181;28;20605;-70
2023/02/27 05:12:56;;;;;;;0.70;0.40;;;0.40;99.90;;;;;;4913880;28;20633;-70
2023/02/27 05:15:35;;;;;;;0.93;0.93;;;0.40;99.90;;;;;;4912869;29;20476;-69
2023/02/27 05:18:09;;;;;;;0.73;0.73;;;0.40;99.90;;;;;;4934285;28;20544;-70
2023/02/27 05:21:18;;;;;;;1.97;0.70;;;0.40;99.90;;;;;;4933997;29;20520;-69
2023/02/27 05:23:49;;;;;;;0.60;0.50;;;0.40;99.90;;;;;;4926780;28;20467;-70
2023/02/27 05:26:31;;;;;;;1.00;0.73;;;0.30;99.90;;;;;;4923761;29;20451;-69
2023/02/27 05:29:13;;;;;;;1.03;0.63;;;0.40;99.90;;;;;;4953630;28;20469;-70
2023/02/27 05:31:42;;;;;;;1.17;0.90;;;0.40;99.90;;;;;;4915869;29;20497;-69
2023/02/27 05:34:28;;;;;;;0.60;0.53;;;0.40;99.90;;;;;;4916512;29;20484;-70
2023/02/27 05:37:03;;;;;;;0.60;0.60;;;0.40;99.90;;;;;;4920276;28;20651;-70
2023/02/27 05:39:32;;;;;;;0.80;0.80;;;0.40;99.90;;;;;;4917642;29;20472;-69
2023/02/27 05:42:01;;;;;;;0.50;0.40;;;0.40;99.90;;;;;;4913032;29;20475;-70
2023/02/27 05:44:34;;;;;;;0.40;0.40;;;0.40;99.90;;;;;;4928858;28;20988;-69
2023/02/27 05:47:14;;;;;;;0.60;0.60;;;0.50;99.90;;;;;;4912684;28;20473;-69
2023/02/27 05:49:53;;;;;;;1.33;0.77;;;0.40;99.90;;;;;;4946537;28;20466;-69
2023/02/27 05:52:23;;;;;;;1.43;0.67;;;0.40;99.90;;;;;;4932459;29;20466;-70
2023/02/27 05:54:57;;;;;;;0.80;0.60;;;0.40;99.90;;;;;;4928448;28;20455;-70
2023/02/27 05:57:29;;;;;;;0.80;0.70;;;0.40;99.90;;;;;;4933596;29;20456;-70
2023/02/27 06:00:15;;;;;;;0.67;0.67;;;0.40;99.90;;;;;;4913286;28;20559;-68
2023/02/27 06:02:43;;;;;;;0.73;0.73;;;0.40;99.90;;;;;;4921366;29;20500;-70
2023/02/27 06:05:14;;;;;;;0.50;0.40;;;0.40;99.90;;;;;;4926694;29;20529;-70
2023/02/27 06:07:40;;;;;;;0.60;0.60;;;0.40;99.90;;;;;;4933546;29;20477;-69
2023/02/27 06:10:06;;;;;;;0.80;0.80;;;0.30;99.90;;;;;;4924871;28;20456;-70
2023/02/27 06:12:33;;;;;;;0.77;0.57;;;0.30;99.90;;;;;;4917821;29;20231;-69
2023/02/27 06:14:58;;;;;;;1.67;0.77;;;0.20;99.90;;;;;;4921073;28;20477;-69
2023/02/27 06:17:24;;;;;;;1.37;0.70;;;0.20;99.90;;;;;;4931417;28;20462;-69
2023/02/27 06:19:50;;;;;;;0.50;0.50;;;0.10;99.90;;;;;;4915858;28;20224;-69
2023/02/27 06:22:15;;;;;;;0.73;0.70;;;0.20;99.90;;;;;;4931226;29;20222;-71
2023/02/27 06:24:41;;;;;;;0.40;0.40;;;0.20;99.90;;;;;;4905204;29;20373;-69
2023/02/27 06:27:07;;;;;;;2.77;0.90;;;0.20;99.90;;;;;;4930357;28;20297;-68
2023/02/27 06:29:33;;;;;;;1.47;0.70;;;0.20;99.90;;;;;;4922223;28;20304;-68
2023/02/27 06:31:59;;;;;;;6.30;1.20;;;0.20;99.90;;;;;;4923280;28;20226;-68
2023/02/27 06:34:24;;;;;;;0.70;0.70;;;0.20;99.90;;;;;;4905247;29;20807;-68
2023/02/27 06:36:50;;;;;;;0.87;0.77;;;0.30;99.90;;;;;;4935638;28;20223;-68
2023/02/27 06:39:15;;;;;;;1.37;1.03;;;0.20;99.90;;;;;;4924550;28;20238;-68
2023/02/27 06:41:41;;;;;;;0.67;0.60;;;0.20;99.90;;;;;;4922921;28;20230;-69
2023/02/27 06:44:07;;;;;;;1.13;1.03;;;0.20;99.90;;;;;;4930121;28;20219;-69
2023/02/27 06:46:32;;;;;;;0.87;0.87;;;0.20;99.90;;;;;;4910460;29;20363;-68
2023/02/27 06:48:58;;;;;;;0.60;0.40;;;0.20;99.90;;;;;;4922280;29;20221;-69
2023/02/27 06:51:24;;;;;;;3.23;1.27;;;0.20;99.90;;;;;;4919246;29;20226;-69
2023/02/27 06:53:50;;;;;;;1.67;0.80;;;0.20;99.90;;;;;;4916630;29;20217;-68
2023/02/27 06:56:16;;;;;;;0.50;0.50;;;0.20;99.90;;;;;;4920856;28;20222;-69
2023/02/27 06:58:41;;;;;;;0.90;0.90;;;0.20;99.90;;;;;;4926820;29;20484;-68
2023/02/27 07:01:07;;;;;;;1.20;0.87;;;0.20;99.90;;;;;;4924143;29;20224;-68
2023/02/27 07:03:33;;;;;;;0.80;0.80;;;0.20;99.90;;;;;;4926540;28;20221;-68
2023/02/27 07:05:59;;;;;;;1.20;0.90;;;0.20;99.90;;;;;;4921584;28;20563;-69
2023/02/27 07:08:24;;;;;;;0.97;0.90;;;0.30;99.90;;;;;;4919693;29;20278;-67
2023/02/27 07:10:50;;;;;;;0.60;0.60;;;0.30;99.90;;;;;;4920416;29;20294;-69
2023/02/27 07:13:16;;;;;;;3.50;1.00;;;0.30;99.90;;;;;;4936156;29;20225;-68
2023/02/27 07:15:43;;;;;;;2.00;1.00;;;0.30;99.90;;;;;;4908662;29;20225;-68
2023/02/27 07:18:09;;;;;;;0.90;0.67;;;0.40;99.90;;;;;;4925762;29;20451;-69
2023/02/27 07:20:35;;;;;;;3.50;1.27;;;0.30;99.90;;;;;;4907358;29;20459;-68
2023/02/27 07:23:01;;;;;;;0.80;0.70;;;0.30;99.90;;;;;;4926042;29;20463;-69
2023/02/27 07:25:27;;;;;;;0.40;0.40;;;0.40;99.90;;;;;;4917517;29;20227;-67
2023/02/27 07:27:52;;;;;;;0.80;0.80;;;0.40;99.90;;;;;;4920630;29;20548;-69
2023/02/27 07:30:18;;;;;;;0.60;0.60;;;0.40;99.90;;;;;;4924971;29;20232;-69
2023/02/27 07:32:44;;;;;;;0.50;0.43;;;0.40;99.90;;;;;;4905911;29;20224;-69
2023/02/27 07:35:10;;;;;;;1.37;0.80;;;0.50;99.90;;;;;;4907476;29;20308;-69
2023/02/27 07:37:37;;;;;;;0.90;0.90;;;0.50;99.90;;;;;;4948574;28;20478;-69
2023/02/27 07:40:04;;;;;;;0.67;0.67;;;0.50;99.90;;;;;;4914360;29;20517;-70
2023/02/27 07:42:30;;;;;;;0.80;0.80;;;0.50;99.90;;;;;;4932156;29;20465;-69
2023/02/27 07:44:55;;;;;;;1.00;0.63;;;0.60;99.90;;;;;;4928018;28;20481;-70
2023/02/27 07:47:21;;;;;;;1.13;0.90;;;0.60;99.90;;;;;;4924052;29;20853;-67
2023/02/27 07:49:47;;;;;;;1.10;0.70;;;0.60;99.90;;;;;;4922787;29;20226;-70
2023/02/27 07:52:12;;;;;;;0.90;0.70;;;0.70;99.90;;;;;;4919382;29;20589;-69
2023/02/27 07:54:38;;;;;;;1.37;1.03;;;0.80;99.90;;;;;;4910452;29;20301;-70
2023/02/27 07:57:04;;;;;;;1.30;1.20;;;0.80;99.90;;;;;;4912276;29;20278;-69
2023/02/27 07:59:30;;;;;;;1.30;1.20;;;0.80;99.90;;;;;;4906562;29;20241;-69
2023/02/27 08:01:56;;;;;;;2.20;2.07;;;0.90;99.90;;;;;;4912192;29;20551;-70
2023/02/27 08:04:22;;;;;;;1.67;1.57;;;0.90;99.90;;;;;;4929465;28;20465;-70
2023/02/27 08:06:47;;;;;;;2.03;1.73;;;0.90;99.90;;;;;;4907269;29;20286;-69
2023/02/27 08:09:13;;;;;;;2.93;1.40;;;0.90;99.90;;;;;;4925387;29;20234;-70
2023/02/27 08:11:39;;;;;;;2.83;1.10;;;1.00;99.90;;;;;;4943288;28;20296;-70
2023/02/27 08:14:05;;;;;;;0.90;0.90;;;1.00;99.90;;;;;;4903559;29;20235;-70
2023/02/27 08:16:30;;;;;;;2.27;1.33;;;1.00;99.90;;;;;;4921435;29;20221;-69
2023/02/27 08:18:56;;;;;;;1.17;1.00;;;1.10;99.90;;;;;;4917928;29;20229;-69
2023/02/27 08:21:22;;;;;;;1.53;1.37;;;1.20;99.90;;;;;;4897299;29;20295;-70
2023/02/27 08:23:47;;;;;;;0.87;0.80;;;1.30;99.90;;;;;;4915059;29;20276;-70
2023/02/27 08:26:13;;;;;;;1.17;0.80;;;1.20;99.90;;;;;;4907676;29;20232;-70
2023/02/27 08:28:39;;;;;;;1.23;1.13;;;1.20;99.90;;;;;;4922891;29;20238;-68
2023/02/27 08:31:05;;;;;;;0.97;0.60;;;1.20;99.90;;;;;;4921134;28;20496;-69
2023/02/27 08:33:32;;;;;;;0.80;0.80;;;1.30;99.90;;;;;;4900709;29;20224;-68
2023/02/27 08:35:57;;;;;;;1.30;1.20;;;1.20;99.90;;;;;;4927114;29;20472;-69
2023/02/27 08:38:23;;;;;;;1.53;1.30;;;1.30;99.90;;;;;;4923791;29;20552;-69
2023/02/27 08:40:52;;;;;;;0.90;0.90;;;1.30;99.90;;;;;;4919515;29;20226;-70
2023/02/27 08:43:19;;;;;;;1.07;0.77;;;1.30;99.90;;;;;;4927415;29;20245;-69
2023/02/27 08:45:45;;;;;;;1.00;1.00;;;1.30;99.90;;;;;;4928956;29;20613;-70
2023/02/27 08:48:12;;;;;;;2.33;2.03;;;1.40;99.90;;;;;;4905570;29;20462;-70
2023/02/27 08:50:38;;;;;;;1.90;1.20;;;1.40;99.90;;;;;;4916998;29;20471;-69
2023/02/27 08:53:04;;;;;;;1.87;1.37;;;1.50;99.90;;;;;;4920033;29;20451;-70
2023/02/27 08:55:30;;;;;;;2.97;1.27;;;1.40;99.90;;;;;;4912593;29;20330;-70
2023/02/27 08:57:55;;;;;;;1.10;1.00;;;1.50;99.90;;;;;;4920135;29;20224;-70
2023/02/27 09:00:21;;;;;;;1.30;1.20;;;1.60;99.90;;;;;;4935215;28;20270;-69
2023/02/27 09:02:47;;;;;;;1.63;1.17;;;1.60;99.90;;;;;;4948262;28;20230;-69
2023/02/27 09:05:13;;;;;;;1.20;1.10;;;1.70;99.90;;;;;;4927924;29;20463;-70
2023/02/27 09:07:39;;;;;;;2.17;1.73;;;1.60;99.90;;;;;;4935490;28;20663;-69
2023/02/27 09:10:06;;;;;;;0.80;0.80;;;1.70;99.90;;;;;;4953678;28;20577;-70
2023/02/27 09:12:31;;;;;;;1.40;1.23;;;1.70;99.90;;;;;;4920950;29;20234;-69
2023/02/27 09:14:57;;;;;;;1.17;0.80;;;1.90;99.90;;;;;;4932968;28;20528;-70
2023/02/27 09:17:23;;;;;;;0.97;0.97;;;1.80;99.90;;;;;;4921778;29;20233;-68
2023/02/27 09:19:50;;;;;;;1.20;1.17;;;1.90;99.90;;;;;;4938674;28;20500;-71
2023/02/27 09:22:17;;;;;;;1.43;1.03;;;1.90;99.90;;;;;;4907175;29;20284;-68
2023/02/27 09:24:43;;;;;;;2.07;1.17;;;1.90;99.90;;;;;;4939401;28;20473;-74
2023/02/27 09:27:08;;;;;;;1.80;1.70;;;2.10;99.90;;;;;;4932630;29;20446;-71
2023/02/27 09:29:34;;;;;;;2.33;0.90;;;2.10;99.90;;;;;;4927232;29;20262;-69
2023/02/27 09:31:59;;;;;;;1.30;1.20;;;2.10;99.90;;;;;;4925591;29;20222;-70
2023/02/27 09:34:25;;;;;;;2.40;1.40;;;2.20;99.90;;;;;;4925241;29;20230;-69
2023/02/27 09:36:51;;;;;;;1.43;1.20;;;2.10;99.90;;;;;;4921601;29;20261;-70
2023/02/27 09:39:17;;;;;;;1.47;1.20;;;2.00;99.90;;;;;;4936526;28;20241;-70
2023/02/27 09:41:58;;;;;;;1.40;1.30;;;2.00;99.90;;;;;;4945073;28;20233;-69
2023/02/27 09:44:43;;;;;;;1.27;1.13;;;2.00;99.90;;;;;;4927015;29;20229;-69
2023/02/27 09:47:22;;;;;;;3.13;2.17;;;2.00;99.90;;;;;;4913772;29;20491;-70
2023/02/27 09:50:04;;;;;;;2.20;1.53;;;2.10;99.90;;;;;;4929257;29;20457;-70
2023/02/27 09:52:32;;;;;;;1.63;1.20;;;2.00;99.90;;;;;;4944681;28;20507;-68
2023/02/27 09:54:58;;;;;;;1.33;1.23;;;2.00;99.90;;;;;;4928788;28;20542;-68
2023/02/27 09:57:47;;;;;;;1.33;1.23;;;2.00;99.90;;;;;;4927243;29;20462;-68
2023/02/27 10:00:40;;;;;;;3.50;1.57;;;2.10;99.90;;;;;;4922355;29;20235;-67
2023/02/27 10:03:26;;;;;;;10.17;6.90;;;2.10;99.90;;;;;;4944437;28;20490;-69
2023/02/27 10:06:25;;;;;;;23.23;10.20;;;2.30;99.90;;;;;;4926743;28;20493;-69
2023/02/27 10:09:03;;;;;;;4.67;2.90;;;2.40;99.90;;;;;;4937834;28;20460;-69
2023/02/27 10:11:44;;;;;;;3.17;2.27;;;2.20;99.90;;;;;;4926758;29;20479;-68
2023/02/27 10:14:45;;;;;;;1.70;1.53;;;2.20;99.90;;;;;;4928609;28;20454;-69
2023/02/27 10:17:36;;;;;;;1.60;1.50;;;2.20;99.90;;;;;;4929004;28;20448;-69
2023/02/27 10:20:09;;;;;;;2.27;2.07;;;2.10;99.90;;;;;;4913218;29;20503;-69
2023/02/27 10:22:41;;;;;;;1.80;1.33;;;2.20;99.90;;;;;;4923887;29;20477;-69
2023/02/27 10:25:14;;;;;;;1.90;1.80;;;2.20;99.90;;;;;;4917332;29;20460;-68
2023/02/27 10:27:43;;;;;;;1.37;1.37;;;2.20;99.90;;;;;;4903384;29;20467;-67
2023/02/27 10:30:18;;;;;;;2.30;1.53;;;2.20;99.90;;;;;;4918268;29;20456;-69
2023/02/27 10:32:45;;;;;;;1.83;1.60;;;2.20;99.90;;;;;;4912683;29;20634;-71
2023/02/27 10:35:33;;;;;;;2.30;1.70;;;2.20;99.90;;;;;;4926528;29;20998;-69
2023/02/27 10:38:06;;;;;;;2.03;1.63;;;2.50;99.90;;;;;;4917452;28;20558;-68
2023/02/27 10:40:35;;;;;;;2.60;1.40;;;2.50;99.90;;;;;;4917956;29;20487;-69
2023/02/27 10:43:03;;;;;;;2.77;1.70;;;2.40;99.90;;;;;;4909034;29;20448;-69
2023/02/27 10:45:29;;;;;;;1.87;1.60;;;2.40;99.90;;;;;;4919705;29;20477;-69
2023/02/27 10:47:56;;;;;;;1.73;1.63;;;2.50;99.90;;;;;;4908136;29;20460;-69
2023/02/27 10:50:35;;;;;;;3.43;1.60;;;2.60;99.90;;;;;;4909124;28;20497;-69
2023/02/27 10:53:04;;;;;;;2.50;1.60;;;2.70;99.90;;;;;;4914369;29;20475;-70
2023/02/27 10:55:33;;;;;;;1.83;1.07;;;2.60;99.90;;;;;;4920240;29;20511;-69
2023/02/27 10:58:01;;;;;;;1.50;1.40;;;2.50;99.90;;;;;;4945352;28;20464;-69
2023/02/27 11:00:36;;;;;;;2.20;1.73;;;2.60;99.90;;;;;;4904473;29;20506;-69
2023/02/27 11:03:02;;;;;;;3.30;1.97;;;2.60;99.90;;;;;;4930591;29;20572;-69
2023/02/27 11:05:34;;;;;;;1.70;1.60;;;2.60;99.90;;;;;;4927236;29;20553;-69
2023/02/27 11:08:26;;;;;;;3.13;1.23;;;2.60;99.90;;;;;;4915114;29;20257;-70
2023/02/27 11:11:04;;;;;;;3.10;1.50;;;2.70;99.90;;;;;;4944413;28;20475;-68
2023/02/27 11:13:34;;;;;;;2.33;1.77;;;2.80;99.90;;;;;;4920812;29;20465;-69
2023/02/27 11:16:13;;;;;;;4.57;2.87;;;2.70;99.90;;;;;;4954488;28;20481;-69
2023/02/27 11:18:42;;;;;;;3.40;1.87;;;2.90;99.90;;;;;;4908956;29;20519;-69
2023/02/27 11:21:20;;;;;;;1.70;1.50;;;3.10;99.90;;;;;;4923119;28;20486;-70
2023/02/27 11:23:58;;;;;;;3.10;1.87;;;3.00;99.90;;;;;;4907464;29;20451;-70
2023/02/27 11:26:34;;;;;;;1.67;1.30;;;3.00;99.90;;;;;;4928693;29;20458;-69
2023/02/27 11:29:13;;;;;;;3.33;1.93;;;3.00;99.90;;;;;;4912925;29;20477;-70
2023/02/27 11:32:01;;;;;;;1.27;1.00;;;3.00;99.90;;;;;;4944833;28;20475;-69
2023/02/27 11:34:29;;;;;;;2.10;1.40;;;3.00;99.90;;;;;;4937667;28;20456;-70
2023/02/27 11:37:00;;;;;;;2.73;1.80;;;3.10;99.90;;;;;;4927882;28;20454;-69
2023/02/27 11:39:36;;;;;;;1.47;1.30;;;3.00;99.90;;;;;;4904872;29;21013;-70
2023/02/27 11:42:20;;;;;;;1.30;1.20;;;3.00;99.90;;;;;;4901801;29;20489;-70
2023/02/27 11:45:27;;;;;;;1.97;1.20;;;3.00;99.90;;;;;;4942957;28;20466;-70
2023/02/27 11:48:08;;;;;;;1.43;1.33;;;3.00;99.90;;;;;;4909178;29;20459;-70
2023/02/27 11:51:21;;;;;;;1.83;1.10;;;3.00;99.90;;;;;;4948959;28;20516;-69
2023/02/27 11:54:11;;;;;;;1.67;1.50;;;3.10;99.90;;;;;;4942978;28;20527;-70
2023/02/27 11:56:55;;;;;;;1.77;1.67;;;3.10;99.90;;;;;;4925243;29;20490;-69
2023/02/27 11:59:42;;;;;;;2.10;1.40;;;3.10;99.90;;;;;;4918620;29;20484;-69
2023/02/27 12:02:16;;;;;;;1.10;1.00;;;3.10;99.90;;;;;;4924633;28;20518;-70
2023/02/27 12:04:46;;;;;;;2.50;1.30;;;3.10;99.90;;;;;;4923428;29;20498;-69
2023/02/27 12:07:25;;;;;;;2.20;1.33;;;3.20;99.90;;;;;;4924309;29;20462;-70
2023/02/27 12:10:25;;;;;;;1.40;1.30;;;3.30;99.90;;;;;;4922245;29;20473;-70
2023/02/27 12:13:23;;;;;;;1.77;1.67;;;3.30;99.90;;;;;;4907400;29;20469;-70
2023/02/27 12:15:56;;;;;;;2.00;1.30;;;3.30;99.90;;;;;;4913666;29;20481;-70
2023/02/27 12:18:42;;;;;;;1.40;1.30;;;3.40;99.90;;;;;;4928655;29;20471;-70
2023/02/27 12:21:19;;;;;;;1.80;1.57;;;3.30;99.90;;;;;;4926959;28;20466;-70
2023/02/27 12:23:55;;;;;;;2.33;1.60;;;3.30;99.90;;;;;;4916836;29;20576;-69
2023/02/27 12:26:43;;;;;;;1.50;1.40;;;3.40;99.90;;;;;;4916171;29;20518;-70
2023/02/27 12:29:30;;;;;;;1.60;1.50;;;3.30;99.80;;;;;;4946450;28;20497;-69
2023/02/27 12:32:29;;;;;;;1.77;1.43;;;3.30;99.80;;;;;;4942155;28;20474;-70
2023/02/27 12:35:12;;;;;;;1.27;1.23;;;3.40;99.90;;;;;;4902344;29;20459;-70
2023/02/27 12:37:38;;;;;;;2.37;1.77;;;3.40;99.90;;;;;;4902404;29;20469;-70
2023/02/27 12:40:06;;;;;;;1.90;1.50;;;3.60;99.90;;;;;;4925799;29;20467;-70
2023/02/27 12:43:10;;;;;;;1.30;1.30;;;3.40;99.30;;;;;;4915453;28;20227;-69
2023/02/27 12:45:51;;;;;;;2.90;1.60;;;3.40;99.40;;;;;;4892891;29;20498;-70
2023/02/27 12:48:51;;;;;;;6.07;1.77;;;3.40;99.30;;;;;;4904524;29;20454;-69
2023/02/27 12:51:28;;;;;;;2.03;1.93;;;3.50;99.20;;;;;;4927603;29;20561;-70
2023/02/27 12:54:06;;;;;;;2.43;1.30;;;3.40;99.00;;;;;;4925044;28;20498;-71
2023/02/27 12:56:50;;;;;;;1.60;1.50;;;3.40;99.10;;;;;;4922520;29;20447;-70
2023/02/27 12:59:29;;;;;;;1.77;1.40;;;3.40;99.00;;;;;;4941028;28;20489;-70
2023/02/27 13:01:58;;;;;;;2.57;1.60;;;3.50;99.10;;;;;;4926800;29;20471;-70
2023/02/27 13:04:53;;;;;;;1.83;1.63;;;3.50;98.90;;;;;;4921223;29;20474;-70
2023/02/27 13:08:01;;;;;;;4.20;1.90;;;3.50;98.80;;;;;;4940407;28;20466;-70
2023/02/27 13:10:37;;;;;;;1.50;1.40;;;3.60;98.90;;;;;;4898518;29;20529;-70
2023/02/27 13:13:18;;;;;;;1.40;1.30;;;3.60;99.10;;;;;;4922344;28;20554;-70
2023/02/27 13:15:53;;;;;;;1.40;1.30;;;3.60;98.90;;;;;;4920996;29;20889;-69
2023/02/27 13:18:30;;;;;;;1.67;1.50;;;3.50;99.00;;;;;;4923031;29;20559;-70
2023/02/27 13:21:05;;;;;;;3.97;1.63;;;3.60;99.50;;;;;;4923196;29;20473;-70
2023/02/27 13:23:54;;;;;;;2.03;1.20;;;3.70;99.30;;;;;;4919917;28;20486;-69
2023/02/27 13:26:29;;;;;;;5.93;3.50;;;3.90;99.40;;;;;;4916552;29;20539;-70
2023/02/27 13:28:56;;;;;;;23.10;9.47;;;4.00;99.00;;;;;;4936761;28;20473;-70